createdAt,value
2023-01-22T00:03:54.892Z,7.15
2023-01-22T00:09:16.667Z,6.88
2023-01-22T00:14:38.374Z,7.13
2023-01-22T00:20:00.172Z,6.88
2023-01-22T00:25:21.907Z,6.50
2023-01-22T00:30:43.706Z,6.47
2023-01-22T00:36:11.265Z,6.20
2023-01-22T00:41:32.984Z,5.93
2023-01-22T00:46:54.693Z,6.03
2023-01-22T00:52:16.443Z,6.55
2023-01-22T00:57:38.194Z,6.43
2023-01-22T01:03:18.554Z,5.93
2023-01-22T01:08:42.614Z,5.82
2023-01-22T01:14:04.905Z,6.53
2023-01-22T01:19:26.602Z,6.35
2023-01-22T01:24:48.614Z,5.95
2023-01-22T01:30:10.826Z,6.68
2023-01-22T01:35:32.671Z,5.47
2023-01-22T01:40:54.369Z,6.47
2023-01-22T01:46:23.126Z,5.90
2023-01-22T01:51:45.824Z,5.70
2023-01-22T01:57:12.784Z,5.70
2023-01-22T02:02:34.492Z,6.20
2023-01-22T02:07:56.384Z,6.40
2023-01-22T02:13:26.310Z,6.57
2023-01-22T02:18:48.188Z,7.22
2023-01-22T02:24:15.051Z,6.55
2023-01-22T02:29:37.131Z,6.63
2023-01-22T02:34:59.148Z,6.13
2023-01-22T02:40:21.129Z,5.82
2023-01-22T02:45:43.131Z,5.88
2023-01-22T02:51:05.460Z,5.32
2023-01-22T02:56:27.291Z,5.55
2023-01-22T03:01:49.164Z,4.78
2023-01-22T03:07:10.889Z,5.15
2023-01-22T03:12:51.020Z,5.35
2023-01-22T03:18:32.364Z,4.50
2023-01-22T03:23:55.347Z,4.43
2023-01-22T03:29:17.144Z,4.38
2023-01-22T03:34:38.983Z,4.38
2023-01-22T03:40:00.748Z,3.80
2023-01-22T03:45:22.461Z,3.85
2023-01-22T03:50:44.146Z,3.53
2023-01-22T03:56:09.209Z,3.42
2023-01-22T04:01:31.119Z,3.07
2023-01-22T04:06:53.097Z,2.80
2023-01-22T04:12:14.803Z,2.40
2023-01-22T04:17:36.502Z,2.22
2023-01-22T04:22:58.285Z,2.42
2023-01-22T04:28:20.872Z,2.58
2023-01-22T04:33:42.570Z,2.55
2023-01-22T04:39:04.442Z,2.40
2023-01-22T04:44:26.190Z,2.60
2023-01-22T04:49:47.911Z,2.50
2023-01-22T04:55:10.145Z,2.47
2023-01-22T05:00:31.954Z,2.15
2023-01-22T05:05:53.700Z,2.72
2023-01-22T05:11:15.468Z,2.47
2023-01-22T05:16:37.196Z,2.33
2023-01-22T05:21:58.895Z,2.25
2023-01-22T05:27:20.868Z,2.35
2023-01-22T05:32:42.592Z,2.65
2023-01-22T05:38:04.303Z,2.45
2023-01-22T05:43:25.976Z,2.30
2023-01-22T05:48:47.828Z,2.50
2023-01-22T05:54:10.266Z,2.03
2023-01-22T05:59:32.099Z,2.45
2023-01-22T06:04:54.079Z,2.45
2023-01-22T06:10:16.834Z,2.10
2023-01-22T06:15:39.384Z,2.30
2023-01-22T06:21:03.352Z,2.22
2023-01-22T06:26:25.062Z,1.98
2023-01-22T06:31:46.896Z,1.77
2023-01-22T06:37:09.251Z,1.95
2023-01-22T06:42:30.983Z,1.42
2023-01-22T06:47:52.702Z,1.33
2023-01-22T06:53:14.631Z,1.10
2023-01-22T06:58:36.368Z,1.33
2023-01-22T07:03:58.098Z,0.90
2023-01-22T07:09:19.992Z,0.98
2023-01-22T07:14:41.744Z,0.90
2023-01-22T07:20:04.997Z,1.13
2023-01-22T07:25:27.779Z,1.23
2023-01-22T07:30:49.949Z,1.40
2023-01-22T07:36:11.662Z,1.13
2023-01-22T07:41:33.397Z,1.23
2023-01-22T07:46:55.175Z,1.08
2023-01-22T07:52:16.984Z,1.60
2023-01-22T07:57:38.753Z,1.10
2023-01-22T08:03:00.729Z,1.15
2023-01-22T08:08:22.379Z,0.93
2023-01-22T08:13:44.121Z,1.30
2023-01-22T08:19:05.816Z,0.98
2023-01-22T08:24:27.654Z,1.30
2023-01-22T08:29:52.415Z,1.67
2023-01-22T08:35:14.309Z,1.13
2023-01-22T08:40:37.910Z,1.50
2023-01-22T08:45:59.942Z,1.40
2023-01-22T08:51:23.632Z,1.48
2023-01-22T08:56:45.426Z,1.48
2023-01-22T09:02:12.754Z,1.52
2023-01-22T09:07:34.578Z,1.40
2023-01-22T09:12:59.710Z,1.20
2023-01-22T09:18:21.435Z,1.17
2023-01-22T09:23:43.144Z,1.20
2023-01-22T09:29:06.089Z,1.30
2023-01-22T09:34:27.901Z,1.45
2023-01-22T09:39:50.675Z,0.95
2023-01-22T09:45:15.352Z,1.00
2023-01-22T09:50:38.147Z,1.07
2023-01-22T09:56:00.677Z,1.30
2023-01-22T10:01:23.618Z,1.00
2023-01-22T10:06:46.394Z,1.08
2023-01-22T10:12:13.984Z,1.10
2023-01-22T10:17:36.963Z,1.00
2023-01-22T10:23:09.070Z,1.30
2023-01-22T10:28:50.557Z,1.08
2023-01-22T10:34:21.444Z,1.43
2023-01-22T10:39:46.249Z,1.50
2023-01-22T10:45:19.554Z,1.60
2023-01-22T10:50:42.428Z,1.38
2023-01-22T10:56:08.270Z,1.20
2023-01-22T11:01:35.785Z,1.35
2023-01-22T11:07:07.256Z,1.50
2023-01-22T11:12:42.976Z,1.00
2023-01-22T11:18:07.498Z,1.35
2023-01-22T11:23:47.869Z,1.43
2023-01-22T11:29:31.233Z,1.30
2023-01-22T11:35:01.308Z,1.15
2023-01-22T11:40:31.055Z,1.30
2023-01-22T11:46:13.854Z,1.30
2023-01-22T11:52:16.829Z,1.35
2023-01-22T11:57:59.759Z,1.10
2023-01-22T12:03:39.676Z,0.80
2023-01-22T12:09:07.278Z,1.10
2023-01-22T12:14:51.021Z,0.80
2023-01-22T12:20:54.479Z,1.08
2023-01-22T12:26:31.902Z,1.00
2023-01-22T12:32:11.204Z,1.02
2023-01-22T12:37:45.348Z,1.20
2023-01-22T12:43:08.003Z,0.98
2023-01-22T12:48:47.137Z,0.90
2023-01-22T12:54:28.493Z,0.80
2023-01-22T12:59:55.541Z,2.20
2023-01-22T13:05:20.421Z,1.00
2023-01-22T13:10:56.642Z,1.17
2023-01-22T13:16:36.570Z,0.88
2023-01-22T13:22:00.884Z,1.25
2023-01-22T13:27:32.489Z,1.00
2023-01-22T13:33:15.416Z,0.70
2023-01-22T13:38:37.954Z,0.98
2023-01-22T13:43:59.911Z,1.00
2023-01-22T13:49:25.702Z,0.80
2023-01-22T13:55:16.073Z,0.73
2023-01-22T14:00:37.842Z,1.10
2023-01-22T14:06:14.845Z,1.00
2023-01-22T14:11:40.796Z,1.05
2023-01-22T14:17:02.508Z,0.63
2023-01-22T14:22:24.739Z,0.73
2023-01-22T14:27:50.208Z,0.80
2023-01-22T14:38:46.087Z,0.90
2023-01-22T14:44:08.486Z,0.57
2023-01-22T14:49:31.006Z,0.80
2023-01-22T14:54:52.791Z,0.80
2023-01-22T15:00:17.236Z,0.68
2023-01-22T15:05:39.096Z,0.87
2023-01-22T15:11:01.582Z,0.80
2023-01-22T15:16:23.309Z,0.82
2023-01-22T15:21:45.296Z,1.23
2023-01-22T15:27:07.826Z,0.88
2023-01-22T15:32:30.023Z,0.73
2023-01-22T15:37:51.760Z,1.23
2023-01-22T15:43:13.542Z,0.88
2023-01-22T15:48:37.273Z,0.52
2023-01-22T15:54:02.453Z,1.00
2023-01-22T15:59:24.288Z,0.82
2023-01-22T16:04:46.033Z,0.80
2023-01-22T16:10:08.067Z,0.77
2023-01-22T16:15:29.749Z,1.08
2023-01-22T16:20:51.570Z,0.70
2023-01-22T16:26:19.107Z,0.50
2023-01-22T16:31:41.232Z,0.80
2023-01-22T16:37:05.913Z,0.75
2023-01-22T16:42:27.653Z,0.83
2023-01-22T16:47:49.625Z,0.95
2023-01-22T16:53:11.342Z,1.27
2023-01-22T16:58:33.087Z,0.80
2023-01-22T17:03:54.919Z,0.90
2023-01-22T17:09:24.656Z,1.10
2023-01-22T17:14:48.419Z,1.00
2023-01-22T17:20:10.949Z,0.70
2023-01-22T17:25:32.679Z,1.00
2023-01-22T17:30:55.479Z,0.95
2023-01-22T17:36:22.702Z,0.80
2023-01-22T17:41:45.178Z,1.08
2023-01-22T17:47:06.919Z,0.80
2023-01-22T17:52:28.582Z,0.70
2023-01-22T17:57:54.762Z,0.60
2023-01-22T18:03:16.605Z,0.88
2023-01-22T18:08:40.049Z,1.20
2023-01-22T18:14:05.735Z,1.05
2023-01-22T18:19:27.797Z,0.88
2023-01-22T18:24:49.876Z,1.10
2023-01-22T18:30:12.183Z,1.00
2023-01-22T18:35:34.951Z,1.17
2023-01-22T18:40:57.047Z,0.95
2023-01-22T18:46:19.443Z,0.90
2023-01-22T18:51:42.266Z,0.90
2023-01-22T18:57:04.065Z,0.93
2023-01-22T19:02:25.819Z,1.13
2023-01-22T19:07:47.547Z,0.90
2023-01-22T19:13:09.593Z,0.90
2023-01-22T19:18:31.959Z,0.77
2023-01-22T19:23:59.224Z,1.08
2023-01-22T19:29:23.887Z,1.10
2023-01-22T19:34:45.750Z,0.90
2023-01-22T19:40:09.215Z,0.68
2023-01-22T19:45:31.004Z,0.90
2023-01-22T19:51:02.174Z,0.82
2023-01-22T19:56:26.419Z,1.00
2023-01-22T20:01:49.430Z,1.00
2023-01-22T20:07:11.471Z,1.10
2023-01-22T20:12:33.280Z,1.30
2023-01-22T20:17:54.973Z,1.02
2023-01-22T20:23:16.712Z,1.10
2023-01-22T20:28:39.745Z,1.10
2023-01-22T20:34:03.270Z,0.90
2023-01-22T20:39:25.263Z,1.10
2023-01-22T20:44:47.101Z,1.02
2023-01-22T20:50:09.431Z,0.95
2023-01-22T20:55:31.157Z,1.00
2023-01-22T21:00:52.902Z,1.10
2023-01-22T21:06:16.689Z,0.93
2023-01-22T21:11:40.398Z,1.00
2023-01-22T21:17:02.213Z,1.02
2023-01-22T21:22:24.023Z,1.02
2023-01-22T21:27:45.825Z,1.30
2023-01-22T21:33:07.604Z,1.10
2023-01-22T21:38:29.467Z,0.90
2023-01-22T21:44:09.839Z,0.90
2023-01-22T21:49:32.983Z,0.80
2023-01-22T21:54:54.729Z,1.00
2023-01-22T22:00:18.980Z,0.93
2023-01-22T22:05:42.323Z,1.13
2023-01-22T22:11:04.827Z,1.20
2023-01-22T22:16:28.053Z,1.48
2023-01-22T22:21:51.242Z,1.10
2023-01-22T22:27:13.374Z,1.30
2023-01-22T22:32:35.036Z,1.58
2023-01-22T22:37:57.091Z,1.45
2023-01-22T22:43:18.928Z,1.70
2023-01-22T22:48:41.219Z,1.33
2023-01-22T22:54:06.449Z,1.35
2023-01-22T22:59:28.152Z,1.63
2023-01-22T23:04:50.272Z,1.50
2023-01-22T23:10:28.916Z,1.88
2023-01-22T23:15:50.750Z,1.80
2023-01-22T23:21:17.676Z,1.40
2023-01-22T23:26:41.093Z,1.80
2023-01-22T23:32:03.006Z,1.80
2023-01-22T23:37:24.717Z,1.67
2023-01-22T23:42:50.235Z,1.50
2023-01-22T23:53:40.267Z,1.80
2023-01-22T23:59:02.053Z,1.92
